Time;durP1;ratioP1;P1;durP2;ratioP2;P2;SDS_P1;SDS_P2;PMS_P1;PMS_P2;Temp;Humidity;BMP_temperature;BMP_pressure;BME280_temperature;BME280_humidity;BME280_pressure;Samples;Min_cycle;Max_cycle;Signal;HPM_P1;HPM_P2
2021/07/06 00:02:16;;;;;;;;;;;;;;;21.96;58.43;100443.75;5020544;28;19941;-77
2021/07/06 00:04:42;;;;;;;;;;;;;;;21.97;58.54;100434.09;5020455;28;19914;-77
2021/07/06 00:07:07;;;;;;;;;;;;;;;21.96;58.51;100438.50;5002836;28;19932;-77
2021/07/06 00:09:32;;;;;;;;;;;;;;;21.96;58.45;100433.22;5002692;28;19980;-77
2021/07/06 00:11:57;;;;;;;;;;;;;;;21.97;58.48;100432.31;5020475;28;19929;-77
2021/07/06 00:14:23;;;;;;;;;;;;;;;21.96;58.46;100422.69;5002861;28;19917;-77
2021/07/06 00:16:48;;;;;;;;;;;;;;;21.97;58.46;100436.72;5020415;28;20000;-78
2021/07/06 00:19:14;;;;;;;;;;;;;;;21.97;58.44;100426.19;5003244;28;20358;-77
2021/07/06 00:21:39;;;;;;;;;;;;;;;21.96;58.39;100432.38;5020548;28;19918;-77
2021/07/06 00:24:04;;;;;;;;;;;;;;;21.96;58.40;100422.69;5002938;28;20012;-77
2021/07/06 00:26:30;;;;;;;;;;;;;;;21.95;58.43;100402.53;4986583;28;19980;-77
2021/07/06 00:28:55;;;;;;;;;;;;;;;21.96;58.46;100399.00;5020560;28;19913;-77
2021/07/06 00:31:20;;;;;;;;;;;;;;;21.96;58.58;100393.75;5002923;28;19968;-77
2021/07/06 00:33:45;;;;;;;;;;;;;;;21.95;58.55;100394.63;5020658;28;19928;-77
2021/07/06 00:36:11;;;;;;;;;;;;;;;21.96;58.46;100387.59;4986233;28;19918;-77
2021/07/06 00:38:36;;;;;;;;;;;;;;;21.95;58.35;100375.34;5002882;28;19971;-77
2021/07/06 00:41:02;;;;;;;;;;;;;;;21.95;58.52;100380.59;5002615;28;20394;-77
2021/07/06 00:43:27;;;;;;;;;;;;;;;21.95;58.47;100372.72;5020282;28;19944;-77
2021/07/06 00:45:59;;;;;;;;;;;;;;;21.95;58.45;100370.06;5020216;28;19961;-77
2021/07/06 00:48:25;;;;;;;;;;;;;;;21.95;58.49;100372.72;5020354;28;19952;-77
2021/07/06 00:50:50;;;;;;;;;;;;;;;21.94;58.55;100366.56;5002803;28;20371;-77
2021/07/06 00:53:15;;;;;;;;;;;;;;;21.94;58.43;100363.94;4986321;28;19921;-77
2021/07/06 00:55:42;;;;;;;;;;;;;;;21.94;58.36;100356.06;5002646;28;19917;-77
2021/07/06 00:58:09;;;;;;;;;;;;;;;21.95;58.55;100352.50;5002587;28;20442;-77
2021/07/06 01:00:34;;;;;;;;;;;;;;;21.93;58.56;100351.72;5020115;28;19920;-77
2021/07/06 01:03:00;;;;;;;;;;;;;;;21.94;58.47;100363.13;4986141;28;20278;-77
2021/07/06 01:05:25;;;;;;;;;;;;;;;21.93;58.39;100356.97;4985289;28;19918;-77
2021/07/06 01:07:51;;;;;;;;;;;;;;;21.92;58.52;100347.34;5016804;28;19924;-72
2021/07/06 01:10:17;;;;;;;;;;;;;;;21.94;58.49;100349.94;5016776;28;19936;-73
2021/07/06 01:12:42;;;;;;;;;;;;;;;21.94;58.54;100349.94;5016727;28;19928;-72
2021/07/06 01:15:09;;;;;;;;;;;;;;;21.92;58.60;100339.47;4999145;28;19971;-73
2021/07/06 01:17:36;;;;;;;;;;;;;;;21.93;58.58;100333.28;4999188;28;19914;-72
2021/07/06 01:20:06;;;;;;;;;;;;;;;21.94;58.56;100328.88;5016715;28;19914;-72
2021/07/06 01:22:32;;;;;;;;;;;;;;;21.93;58.56;100316.63;5016642;28;20004;-72
2021/07/06 01:24:58;;;;;;;;;;;;;;;21.93;58.55;100314.88;5016589;28;19924;-72
2021/07/06 01:27:24;;;;;;;;;;;;;;;21.93;58.61;100301.69;5016555;28;20291;-72
2021/07/06 01:29:50;;;;;;;;;;;;;;;21.92;58.56;100302.59;4982745;28;19917;-72
2021/07/06 01:32:15;;;;;;;;;;;;;;;21.92;58.55;100301.75;4998918;28;20436;-76
2021/07/06 01:34:40;;;;;;;;;;;;;;;21.93;58.55;100295.56;5016580;28;19921;-77
2021/07/06 01:37:06;;;;;;;;;;;;;;;21.93;58.39;100295.56;4998947;28;19921;-77
2021/07/06 01:39:31;;;;;;;;;;;;;;;21.92;58.60;100286.81;5016503;28;19914;-77
2021/07/06 01:41:56;;;;;;;;;;;;;;;21.92;58.60;100292.06;5016623;28;20360;-77
2021/07/06 01:44:24;;;;;;;;;;;;;;;21.92;58.61;100289.44;5016496;28;19917;-77
2021/07/06 01:46:50;;;;;;;;;;;;;;;21.93;58.49;100285.03;5016211;28;19913;-77
2021/07/06 01:49:16;;;;;;;;;;;;;;;21.92;58.55;100273.66;4998762;28;20064;-77
2021/07/06 01:51:42;;;;;;;;;;;;;;;21.92;58.54;100264.88;4998463;28;20363;-77
2021/07/06 01:54:07;;;;;;;;;;;;;;;21.92;58.45;100257.84;4998593;28;19920;-77
2021/07/06 01:56:47;;;;;;;1.95;1.60;;;;;;;21.91;58.57;100256.13;4998536;28;20382;-77
2021/07/06 01:59:14;;;;;;;1.63;1.53;;;;;;;21.91;58.66;100245.59;4998730;28;20388;-77
2021/07/06 02:01:41;;;;;;;1.67;1.52;;;;;;;21.93;58.52;100240.28;5016803;28;20495;-77
2021/07/06 02:04:07;;;;;;;1.60;1.40;;;;;;;21.90;58.62;100227.19;5016500;28;20029;-76
2021/07/06 02:06:32;;;;;;;1.25;1.15;;;;;;;21.90;58.58;100219.31;5016204;28;20022;-77
2021/07/06 02:08:59;;;;;;;1.70;1.40;;;;;;;21.91;58.56;100221.03;4998461;28;20228;-77
2021/07/06 02:11:24;;;;;;;1.40;1.10;;;;;;;21.89;58.52;100214.94;4998406;28;20081;-77
2021/07/06 02:13:50;;;;;;;1.40;1.20;;;;;;;21.90;58.63;100217.53;4981934;28;20069;-77
2021/07/06 02:16:16;;;;;;;1.77;1.33;;;;;;;21.89;58.53;100209.69;5015617;28;20056;-77
2021/07/06 02:18:41;;;;;;;2.00;1.70;;;;;;;21.88;58.68;100200.91;5014418;28;20034;-77
2021/07/06 02:21:07;;;;;;;1.60;1.40;;;;;;;21.91;58.77;100198.22;4997865;28;20076;-77
2021/07/06 02:23:34;;;;;;;2.00;1.60;;;;;;;21.89;58.72;100194.75;5015390;28;20040;-77
2021/07/06 02:26:02;;;;;;;1.60;1.35;;;;;;;21.92;58.71;100199.06;5015448;28;20105;-77
2021/07/06 02:28:27;;;;;;;1.90;1.50;;;;;;;21.91;58.83;100194.72;5015537;28;20518;-77
2021/07/06 02:30:53;;;;;;;2.00;1.30;;;;;;;21.88;58.70;100181.63;5015294;28;20037;-73
2021/07/06 02:33:19;;;;;;;1.60;1.20;;;;;;;21.89;58.57;100173.69;4997532;28;20034;-73
2021/07/06 02:35:45;;;;;;;1.63;1.52;;;;;;;21.87;58.72;100164.97;5015075;28;20491;-72
2021/07/06 02:38:11;;;;;;;3.45;1.20;;;;;;;21.91;58.64;100173.66;4981132;28;20476;-72
2021/07/06 02:40:36;;;;;;;1.33;1.13;;;;;;;21.90;58.59;100171.91;4997611;28;20518;-73
2021/07/06 02:43:03;;;;;;;1.33;1.10;;;;;;;21.87;58.62;100154.44;4997178;28;20033;-72
2021/07/06 02:45:29;;;;;;;1.50;1.08;;;;;;;21.88;58.70;100144.78;5014764;28;20025;-72
2021/07/06 02:47:56;;;;;;;1.40;1.15;;;;;;;21.89;58.67;100136.84;4997161;28;20036;-73
2021/07/06 02:50:23;;;;;;;1.75;1.30;;;;;;;21.89;58.69;100138.59;5015118;28;20037;-73
2021/07/06 02:52:49;;;;;;;2.27;1.40;;;;;;;21.89;58.75;100139.47;5016313;28;20052;-73
2021/07/06 02:55:15;;;;;;;1.40;1.13;;;;;;;21.87;58.68;100129.88;5016896;28;20105;-73
2021/07/06 02:57:43;;;;;;;1.42;1.30;;;;;;;21.89;58.75;100123.69;4999007;28;20583;-72
2021/07/06 03:00:17;;;;;;;1.88;1.42;;;;;;;21.88;58.70;100108.78;5016111;28;20492;-72
2021/07/06 03:02:45;;;;;;;1.65;1.50;;;;;;;21.81;58.67;100095.88;5015616;28;20065;-73
2021/07/06 03:05:15;;;;;;;1.42;1.17;;;;;;;21.87;58.61;100114.09;4998206;28;20026;-73
2021/07/06 03:07:42;;;;;;;2.17;1.63;;;;;;;21.88;58.59;100102.66;5015088;28;20096;-72
2021/07/06 03:10:13;;;;;;;1.92;1.30;;;;;;;21.86;58.74;100110.59;4996806;28;20054;-72
2021/07/06 03:12:40;;;;;;;1.45;1.10;;;;;;;21.89;58.75;100099.13;5014782;28;20040;-72
2021/07/06 03:15:08;;;;;;;1.60;1.33;;;;;;;21.89;58.64;100102.63;5014473;28;20034;-73
2021/07/06 03:17:33;;;;;;;1.42;1.13;;;;;;;21.85;58.67;100097.47;5014501;28;20064;-72
2021/07/06 03:20:01;;;;;;;1.55;1.27;;;;;;;21.90;58.81;100112.25;4997190;28;20025;-72
2021/07/06 03:22:27;;;;;;;1.83;1.40;;;;;;;21.82;58.76;100092.31;4997443;28;20029;-73
2021/07/06 03:24:52;;;;;;;1.48;1.23;;;;;;;21.88;58.61;100107.94;5014104;28;20109;-72
2021/07/06 03:27:18;;;;;;;1.48;1.15;;;;;;;21.89;58.69;100096.50;4996720;28;20379;-73
2021/07/06 03:29:43;;;;;;;1.70;1.10;;;;;;;21.85;58.81;100092.22;4996121;28;20037;-72
2021/07/06 03:32:10;;;;;;;1.33;1.20;;;;;;;21.88;58.81;100087.72;4980479;28;20029;-72
2021/07/06 03:34:35;;;;;;;1.65;1.20;;;;;;;21.85;58.67;100084.31;4997037;28;20030;-77
2021/07/06 03:37:02;;;;;;;1.88;1.20;;;;;;;21.86;58.63;100089.53;5014049;28;20478;-77
2021/07/06 03:39:27;;;;;;;1.35;1.00;;;;;;;21.90;58.67;100092.94;4980729;28;20033;-77
2021/07/06 03:41:53;;;;;;;2.00;1.33;;;;;;;21.88;58.70;100085.09;4996810;28;20499;-77
2021/07/06 03:44:18;;;;;;;1.30;1.08;;;;;;;21.87;58.78;100090.41;4980512;28;20061;-77
2021/07/06 03:46:43;;;;;;;1.27;1.17;;;;;;;21.89;58.64;100092.09;4996569;28;20061;-76
2021/07/06 03:49:09;;;;;;;1.15;0.98;;;;;;;21.87;58.62;100083.38;5014034;28;20025;-77
2021/07/06 03:51:34;;;;;;;1.27;1.02;;;;;;;21.86;58.58;100076.38;5014142;28;20037;-77
2021/07/06 03:54:00;;;;;;;1.42;1.27;;;;;;;21.89;58.78;100081.56;4964061;28;20369;-77
2021/07/06 03:56:25;;;;;;;1.77;1.20;;;;;;;21.88;58.71;100076.34;4963960;28;20034;-77
2021/07/06 03:58:50;;;;;;;1.45;1.25;;;;;;;21.89;58.67;100075.44;4996272;28;20124;-77
2021/07/06 04:01:16;;;;;;;1.52;1.17;;;;;;;21.88;58.77;100068.44;5013893;28;20104;-76
2021/07/06 04:03:41;;;;;;;1.40;1.00;;;;;;;21.89;58.66;100076.28;4980156;28;20108;-76
2021/07/06 04:06:06;;;;;;;1.33;1.08;;;;;;;21.89;58.77;100078.06;4979905;28;20030;-76
2021/07/06 04:08:32;;;;;;;1.20;1.00;;;;;;;21.89;58.59;100089.47;5013983;28;20026;-77
2021/07/06 04:10:57;;;;;;;1.23;1.13;;;;;;;21.84;58.69;100074.69;5013560;28;20069;-77
2021/07/06 04:13:23;;;;;;;1.77;1.23;;;;;;;21.88;58.74;100092.13;5013580;28;20109;-76
2021/07/06 04:15:48;;;;;;;1.48;1.17;;;;;;;21.88;58.78;100079.84;5013822;28;20451;-77
2021/07/06 04:18:14;;;;;;;1.63;1.20;;;;;;;21.88;58.74;100087.72;4996113;28;20530;-77
2021/07/06 04:20:39;;;;;;;1.65;1.25;;;;;;;21.89;59.08;100088.59;5013700;28;20037;-77
2021/07/06 04:23:04;;;;;;;2.05;1.85;;;;;;;21.88;58.90;100092.13;4996222;28;20092;-77
2021/07/06 04:25:31;;;;;;;1.42;1.13;;;;;;;21.88;58.80;100089.50;4996005;28;20080;-77
2021/07/06 04:27:57;;;;;;;1.27;0.95;;;;;;;21.85;58.74;100086.97;4980370;28;20029;-77
2021/07/06 04:30:22;;;;;;;1.83;1.23;;;;;;;21.89;58.70;100099.13;5013423;28;20030;-77
2021/07/06 04:32:48;;;;;;;1.05;0.90;;;;;;;21.89;58.89;100096.50;4979569;28;20033;-77
2021/07/06 04:35:14;;;;;;;1.33;0.93;;;;;;;21.89;58.85;100099.13;4996225;28;20060;-77
2021/07/06 04:37:41;;;;;;;1.67;1.20;;;;;;;21.86;58.60;100099.22;5013371;28;20042;-77
2021/07/06 04:40:07;;;;;;;1.25;1.05;;;;;;;21.89;58.69;100110.50;4995825;28;20161;-76
2021/07/06 04:42:32;;;;;;;1.40;1.30;;;;;;;21.87;58.67;100103.56;4998969;28;20373;-77
2021/07/06 04:44:58;;;;;;;1.15;0.93;;;;;;;21.87;58.92;100098.31;4983282;28;20076;-76
2021/07/06 04:47:23;;;;;;;1.55;1.20;;;;;;;21.86;58.81;100101.84;4983585;28;20037;-77
2021/07/06 04:49:49;;;;;;;1.10;0.90;;;;;;;21.85;58.80;100097.47;4999552;28;20057;-77
2021/07/06 04:52:15;;;;;;;1.10;1.00;;;;;;;21.89;58.79;100099.13;4983281;28;20058;-77
2021/07/06 04:54:41;;;;;;;1.27;0.98;;;;;;;21.86;58.65;100094.81;5016940;28;20032;-77
2021/07/06 04:57:06;;;;;;;1.80;1.13;;;;;;;21.88;58.91;100102.66;4999276;28;20042;-77
2021/07/06 04:59:32;;;;;;;1.38;1.25;;;;;;;21.86;58.74;100086.06;4999381;28;20123;-72
2021/07/06 05:01:57;;;;;;;1.00;0.85;;;;;;;21.86;58.72;100091.31;4999334;28;20099;-72
2021/07/06 05:04:23;;;;;;;1.10;1.00;;;;;;;21.88;58.87;100092.13;4982892;28;20388;-72
2021/07/06 05:06:48;;;;;;;1.40;1.20;;;;;;;21.88;58.79;100092.13;4999198;28;20034;-72
2021/07/06 05:09:14;;;;;;;1.75;1.40;;;;;;;21.88;58.97;100084.22;4982648;28;20519;-72
2021/07/06 05:11:39;;;;;;;1.25;0.93;;;;;;;21.88;58.74;100089.50;4998884;28;20062;-72
2021/07/06 05:14:04;;;;;;;1.50;1.13;;;;;;;21.84;58.97;100095.75;4998936;28;20499;-72
2021/07/06 05:16:31;;;;;;;1.20;1.00;;;;;;;21.86;59.07;100088.69;5016633;28;20549;-72
2021/07/06 05:18:57;;;;;;;3.03;1.40;;;;;;;21.82;58.98;100100.19;5016386;28;20038;-71
2021/07/06 05:21:22;;;;;;;5.68;1.40;;;;;;;21.77;59.08;100088.97;4982765;28;20447;-76
2021/07/06 05:23:48;;;;;;;2.45;1.40;;;;;;;21.80;59.30;100095.00;4998800;28;20018;-73
2021/07/06 05:26:14;;;;;;;1.50;1.05;;;;;;;21.82;59.47;100101.06;4982920;28;20480;-74
2021/07/06 05:28:39;;;;;;;2.47;1.57;;;;;;;21.82;59.58;100093.16;4983714;28;20041;-74
2021/07/06 05:31:05;;;;;;;3.58;1.40;;;;;;;21.83;59.73;100094.91;5005681;28;20048;-73
2021/07/06 05:33:31;;;;;;;2.78;1.27;;;;;;;21.84;59.67;100101.88;5016293;28;20022;-72
2021/07/06 05:35:56;;;;;;;2.67;2.03;;;;;;;21.86;59.51;100107.09;5016103;28;20495;-72
2021/07/06 05:38:24;;;;;;;4.68;2.00;;;;;;;21.82;59.60;100097.56;5015838;28;20140;-72
2021/07/06 05:40:57;;;;;;;2.95;1.20;;;;;;;21.84;59.45;100085.22;5015899;28;20109;-72
2021/07/06 05:43:23;;;;;;;7.50;1.88;;;;;;;21.87;59.49;100101.78;4998256;28;20029;-72
2021/07/06 05:45:53;;;;;;;3.08;1.38;;;;;;;21.86;59.58;100091.31;5015854;28;20125;-72
2021/07/06 05:48:19;;;;;;;;;;;;;;;21.87;59.49;100091.28;5016053;28;20041;-72
2021/07/06 05:50:44;;;;;;;2.55;1.40;;;;;;;21.86;59.63;100083.41;4998136;28;19909;-72
2021/07/06 05:53:11;;;;;;;3.63;2.10;;;;;;;21.86;59.50;100086.06;4981575;28;20044;-72
2021/07/06 05:55:40;;;;;;;3.55;1.70;;;;;;;21.87;59.84;100085.13;4998646;28;20423;-72
2021/07/06 05:58:06;;;;;;;4.82;1.67;;;;;;;21.59;60.77;100082.47;4998089;28;20034;-72
2021/07/06 06:00:33;;;;;;;3.08;1.52;;;;;;;21.49;61.28;100074.00;5015363;28;20032;-72
2021/07/06 06:02:59;;;;;;;3.20;1.48;;;;;;;21.34;61.46;100066.56;5015458;28;20045;-72
2021/07/06 06:05:25;;;;;;;1.85;1.35;;;;;;;21.34;61.54;100084.97;5015468;28;20068;-72
2021/07/06 06:07:50;;;;;;;6.28;1.80;;;;;;;21.31;61.88;100088.53;4981542;28;20073;-72
2021/07/06 06:10:16;;;;;;;4.47;1.80;;;;;;;21.24;62.07;100094.03;4997737;28;20132;-72
2021/07/06 06:12:41;;;;;;;3.13;1.60;;;;;;;21.27;61.84;100076.41;5015103;28;20444;-72
2021/07/06 06:15:08;;;;;;;4.72;2.00;;;;;;;21.46;61.13;100084.59;4997775;28;20026;-72
2021/07/06 06:17:35;;;;;;;3.53;1.40;;;;;;;21.60;61.20;100094.72;5015324;28;20038;-72
2021/07/06 06:20:00;;;;;;;5.55;1.92;;;;;;;21.66;60.82;100094.56;5015174;28;20030;-72
2021/07/06 06:22:26;;;;;;;2.10;1.58;;;;;;;21.69;60.69;100086.56;4997521;28;20064;-72
2021/07/06 06:24:51;;;;;;;2.67;1.60;;;;;;;21.68;60.57;100085.69;5015313;28;20395;-72
2021/07/06 06:27:16;;;;;;;2.17;1.23;;;;;;;21.73;60.30;100094.31;4981416;28;20116;-72
2021/07/06 06:29:43;;;;;;;3.83;1.70;;;;;;;21.74;60.58;100092.56;5015012;28;20157;-72
2021/07/06 06:32:08;;;;;;;2.83;1.40;;;;;;;21.77;60.52;100099.50;5015053;28;20488;-72
2021/07/06 06:34:34;;;;;;;3.45;1.50;;;;;;;21.82;60.17;100100.19;4965103;28;20079;-72
2021/07/06 06:36:59;;;;;;;4.25;1.70;;;;;;;21.84;60.24;100099.25;4997223;28;20041;-72
2021/07/06 06:39:24;;;;;;;4.13;1.88;;;;;;;21.84;60.13;100101.88;5015977;28;20030;-72
2021/07/06 06:41:50;;;;;;;2.72;1.80;;;;;;;21.87;60.07;100100.94;5014913;28;20055;-72
2021/07/06 06:44:16;;;;;;;3.50;1.60;;;;;;;21.86;59.79;100104.47;4998303;28;20080;-72
2021/07/06 06:46:41;;;;;;;3.47;1.60;;;;;;;21.90;59.85;100109.59;5015193;28;20021;-72
2021/07/06 06:49:07;;;;;;;2.10;1.30;;;;;;;21.93;59.70;100116.56;5015196;28;20026;-72
2021/07/06 06:51:32;;;;;;;2.80;1.40;;;;;;;21.91;59.81;100107.84;5014979;28;20438;-72
2021/07/06 06:54:01;;;;;;;2.47;1.67;;;;;;;21.97;59.69;100113.75;4980830;28;20088;-72
2021/07/06 06:56:26;;;;;;;;;;;;;;;22.00;59.54;100120.75;4997218;28;20025;-72
2021/07/06 06:58:52;;;;;;;3.15;1.55;;;;;;;22.00;59.55;100108.44;4980834;28;20426;-72
2021/07/06 07:01:17;;;;;;;1.98;1.30;;;;;;;22.05;59.45;100116.22;4965392;28;20085;-72
2021/07/06 07:03:42;;;;;;;;;;;;;;;22.07;59.44;100122.28;5014576;28;20042;-72
2021/07/06 07:06:08;;;;;;;3.30;1.40;;;;;;;22.00;59.40;100123.38;5014827;28;20159;-72
2021/07/06 07:08:33;;;;;;;2.90;1.40;;;;;;;22.06;59.19;100131.09;4980821;28;20038;-72
2021/07/06 07:10:59;;;;;;;3.25;1.40;;;;;;;22.06;59.28;100124.06;5014438;28;20050;-72
2021/07/06 07:13:26;;;;;;;2.70;1.40;;;;;;;22.14;59.01;100129.06;4996759;28;20605;-72
2021/07/06 07:15:52;;;;;;;2.30;1.40;;;;;;;22.24;58.71;100122.59;4981019;28;20454;-72
2021/07/06 07:18:17;;;;;;;3.05;1.35;;;;;;;22.37;58.15;100129.19;4996742;28;20030;-72
2021/07/06 07:20:42;;;;;;;2.00;1.30;;;;;;;22.44;57.63;100127.25;5014147;28;20087;-72
2021/07/06 07:23:08;;;;;;;2.92;1.50;;;;;;;22.50;57.32;100119.13;4996826;28;20404;-72
2021/07/06 07:25:33;;;;;;;3.40;1.80;;;;;;;22.57;57.28;100130.34;4996752;28;20033;-72
2021/07/06 07:27:59;;;;;;;1.40;1.13;;;;;;;22.57;57.41;100130.34;4980132;28;20034;-72
2021/07/06 07:30:24;;;;;;;2.65;1.50;;;;;;;22.56;57.28;100128.63;4996473;28;20037;-72
2021/07/06 07:32:50;;;;;;;2.95;1.40;;;;;;;22.66;56.99;100120.34;4980029;28;20034;-71
2021/07/06 07:35:17;;;;;;;2.17;1.27;;;;;;;22.76;56.79;100132.34;4964075;28;20034;-72
2021/07/06 07:37:43;;;;;;;4.03;1.30;;;;;;;22.82;56.65;100133.03;5013865;28;20041;-77
2021/07/06 07:40:11;;;;;;;4.10;2.08;;;;;;;22.90;56.39;100128.38;4980331;28;20399;-77
2021/07/06 07:42:37;;;;;;;2.45;1.50;;;;;;;22.93;56.17;100123.84;4980428;28;20038;-77
2021/07/06 07:45:03;;;;;;;2.53;1.45;;;;;;;22.97;56.18;100125.47;4996413;28;20042;-77
2021/07/06 07:47:29;;;;;;;2.08;1.65;;;;;;;22.98;56.08;100114.00;5013949;28;20026;-77
2021/07/06 07:49:54;;;;;;;2.78;1.42;;;;;;;22.90;56.49;100107.28;4996323;28;20044;-77
2021/07/06 07:52:20;;;;;;;2.88;1.30;;;;;;;22.94;56.19;100119.44;4964036;28;20034;-77
2021/07/06 07:54:45;;;;;;;2.88;1.20;;;;;;;23.01;55.82;100127.06;4979935;28;20116;-77
2021/07/06 07:57:11;;;;;;;3.38;1.52;;;;;;;22.91;56.61;100122.19;4996135;28;20052;-77
2021/07/06 07:59:40;;;;;;;5.65;1.75;;;;;;;22.92;56.41;100129.19;4979876;28;20104;-77
2021/07/06 08:02:05;;;;;;;2.70;1.88;;;;;;;22.79;56.73;100132.22;4979903;28;20034;-77
2021/07/06 08:04:31;;;;;;;3.42;1.40;;;;;;;22.83;56.54;100122.47;4996119;28;20080;-77
2021/07/06 08:06:56;;;;;;;2.95;1.92;;;;;;;22.84;56.62;100134.72;4996228;28;20030;-77
2021/07/06 08:09:21;;;;;;;1.50;1.23;;;;;;;22.78;56.53;100122.59;4963763;28;20057;-77
2021/07/06 08:11:47;;;;;;;2.03;1.35;;;;;;;22.85;56.33;100141.69;4996036;28;20121;-77
2021/07/06 08:14:12;;;;;;;4.82;1.80;;;;;;;22.95;56.11;100152.81;4963693;28;20041;-77
2021/07/06 08:16:38;;;;;;;2.15;1.33;;;;;;;22.99;56.10;100138.59;4999409;28;20121;-77
2021/07/06 08:19:03;;;;;;;1.75;1.10;;;;;;;22.98;56.16;100128.97;5017556;28;20117;-78
2021/07/06 08:21:29;;;;;;;2.13;1.23;;;;;;;22.98;56.02;100139.53;4999906;28;20464;-77
2021/07/06 08:23:59;;;;;;;3.13;1.48;;;;;;;22.98;55.96;100150.91;4999660;28;20033;-78
2021/07/06 08:26:24;;;;;;;2.53;1.35;;;;;;;22.95;56.10;100134.34;4984160;28;20391;-77
2021/07/06 08:28:50;;;;;;;2.45;1.63;;;;;;;22.97;56.15;100140.44;5017461;28;20018;-77
2021/07/06 08:31:15;;;;;;;2.75;1.63;;;;;;;23.00;55.91;100142.94;4999742;28;20037;-77
2021/07/06 08:33:41;;;;;;;3.25;1.40;;;;;;;22.92;55.94;100137.94;4999983;28;20507;-77
2021/07/06 08:36:06;;;;;;;2.05;1.42;;;;;;;22.87;56.30;100133.72;4999727;28;20053;-77
2021/07/06 08:38:33;;;;;;;2.47;1.73;;;;;;;22.80;56.49;100138.38;5017026;28;20026;-77
2021/07/06 08:40:59;;;;;;;1.80;1.00;;;;;;;22.76;56.64;100152.56;4999798;28;20025;-77
2021/07/06 08:43:24;;;;;;;2.22;1.25;;;;;;;22.71;56.78;100157.97;4999658;28;20438;-77
2021/07/06 08:45:50;;;;;;;2.10;1.30;;;;;;;22.70;56.80;100164.16;5017097;28;20388;-78
2021/07/06 08:48:16;;;;;;;3.75;1.88;;;;;;;22.77;56.46;100149.00;4999506;28;20030;-77
2021/07/06 08:50:44;;;;;;;2.50;1.33;;;;;;;22.78;56.36;100150.72;4999496;28;20091;-78
2021/07/06 08:53:09;;;;;;;2.75;1.40;;;;;;;22.77;56.00;100151.66;4998887;28;20435;-76
2021/07/06 08:55:35;;;;;;;1.58;1.13;;;;;;;22.78;56.29;100158.66;4999540;28;20030;-77
2021/07/06 08:58:00;;;;;;;4.00;1.23;;;;;;;22.75;56.30;100156.94;5000230;28;20423;-77
2021/07/06 09:00:29;;;;;;;3.55;1.30;;;;;;;22.69;56.17;100154.50;4984527;28;20084;-77
2021/07/06 09:02:56;;;;;;;1.60;1.20;;;;;;;22.72;56.35;100159.66;5001151;28;20029;-77
2021/07/06 09:05:22;;;;;;;1.60;1.17;;;;;;;22.76;56.17;100171.00;5004699;28;20026;-77
2021/07/06 09:07:47;;;;;;;3.45;1.25;;;;;;;22.62;56.19;100165.28;4984264;28;20392;-77
2021/07/06 09:10:19;;;;;;;3.20;1.63;;;;;;;22.62;56.50;100166.16;4985362;28;20038;-75
2021/07/06 09:12:45;;;;;;;4.20;1.40;;;;;;;22.63;56.44;100172.28;5016990;28;20041;-73
2021/07/06 09:15:36;;;;;;;4.72;1.30;;;;;;;22.64;56.06;100180.16;4998756;28;20026;-76
2021/07/06 09:18:16;;;;;;;8.82;1.38;;;;;;;22.65;56.17;100175.75;4996026;28;20038;-76
2021/07/06 09:20:57;;;;;;;4.68;1.45;;;;;;;22.68;56.31;100180.91;5016259;28;20040;-76
2021/07/06 09:23:29;;;;;;;2.78;1.00;;;;;;;22.71;56.16;100180.81;5016142;28;20476;-76
2021/07/06 09:26:14;;;;;;;2.95;1.40;;;;;;;22.72;56.08;100187.81;5016360;28;20036;-76
2021/07/06 09:28:48;;;;;;;2.80;1.33;;;;;;;22.74;55.95;100188.59;4997996;28;20034;-76
2021/07/06 09:31:15;;;;;;;4.03;1.48;;;;;;;22.76;55.92;100189.47;4998556;28;20460;-76
2021/07/06 09:33:52;;;;;;;3.20;1.10;;;;;;;22.77;55.67;100183.28;4998629;28;20392;-76
2021/07/06 09:36:48;;;;;;;3.78;1.60;;;;;;;22.68;55.93;100194.09;5015912;28;20043;-76
2021/07/06 09:39:20;;;;;;;4.57;1.50;;;;;;;22.63;56.12;100193.38;4993120;28;20052;-75
2021/07/06 09:42:00;;;;;;;4.75;1.48;;;;;;;22.64;56.07;100198.59;5016059;28;20026;-76
2021/07/06 09:44:31;;;;;;;2.33;1.33;;;;;;;22.62;56.17;100203.06;4998825;28;20024;-76
2021/07/06 09:47:10;;;;;;;2.78;1.80;;;;;;;22.62;56.12;100200.41;4998380;28;20033;-76
2021/07/06 09:49:38;;;;;;;1.83;1.30;;;;;;;22.59;56.21;100211.03;5015968;28;20435;-76
2021/07/06 09:52:15;;;;;;;2.90;1.52;;;;;;;22.55;56.07;100205.94;4998126;28;20024;-75
2021/07/06 09:54:44;;;;;;;3.45;1.75;;;;;;;22.53;56.19;100215.66;5016292;28;20037;-76
2021/07/06 09:57:49;;;;;;;1.70;1.00;;;;;;;22.50;56.14;100213.97;5016494;28;20050;-75
2021/07/06 10:00:12;;;;;;;2.78;1.40;;;;;;;22.49;56.11;100220.16;5014166;28;20125;-76
2021/07/06 10:02:39;;;;;;;4.95;1.80;;;;;;;22.47;56.03;100221.97;5015696;28;20022;-75
2021/07/06 10:05:18;;;;;;;2.53;1.30;;;;;;;22.44;56.17;100220.31;4982351;28;20060;-76
2021/07/06 10:07:43;;;;;;;3.03;1.55;;;;;;;22.48;55.97;100221.06;5016060;28;20133;-76
2021/07/06 10:10:12;;;;;;;1.83;1.00;;;;;;;22.50;55.79;100223.66;4982397;28;20065;-76
2021/07/06 10:12:39;;;;;;;3.15;1.63;;;;;;;22.44;55.67;100220.31;4995487;28;20400;-77
2021/07/06 10:15:10;;;;;;;2.05;1.63;;;;;;;22.47;55.81;100219.34;4996471;28;20381;-77
2021/07/06 10:17:37;;;;;;;4.55;1.20;;;;;;;22.46;55.78;100231.66;4997564;28;20507;-76
2021/07/06 10:20:05;;;;;;;1.80;1.00;;;;;;;22.50;55.39;100223.66;4996589;28;20056;-76
2021/07/06 10:22:30;;;;;;;2.83;1.35;;;;;;;22.46;55.36;100220.25;4964872;28;20122;-75
2021/07/06 10:24:59;;;;;;;2.70;1.33;;;;;;;22.46;55.34;100223.75;4963931;28;20058;-76
2021/07/06 10:27:27;;;;;;;2.75;1.30;;;;;;;22.44;54.85;100225.59;4995721;28;20045;-76
2021/07/06 10:30:18;;;;;;;2.45;1.55;;;;;;;22.40;55.38;100225.72;4995555;28;20073;-76
2021/07/06 10:32:55;;;;;;;2.65;1.40;;;;;;;22.38;55.43;100235.44;4994713;28;20118;-76
2021/07/06 10:35:36;;;;;;;2.65;1.48;;;;;;;22.38;55.25;100231.03;4995806;28;20057;-76
2021/07/06 10:38:48;;;;;;;2.50;1.30;;;;;;;22.41;55.15;100240.63;4994216;28;20038;-76
2021/07/06 10:41:21;;;;;;;3.47;1.48;;;;;;;22.43;54.87;100239.69;4994944;28;20041;-76
2021/07/06 10:43:46;;;;;;;3.50;1.15;;;;;;;22.44;55.39;100240.53;4996005;28;20485;-76
2021/07/06 10:46:21;;;;;;;3.95;1.08;;;;;;;22.43;55.04;100239.69;4994087;28;20070;-76
2021/07/06 10:48:48;;;;;;;5.50;2.53;;;;;;;22.40;54.93;100228.34;4995205;28;20076;-76
2021/07/06 10:51:36;;;;;;;3.35;1.30;;;;;;;22.43;54.85;100236.19;4995328;28;20041;-76
2021/07/06 10:54:17;;;;;;;2.45;1.42;;;;;;;22.41;54.76;100238.00;4994897;28;20081;-75
2021/07/06 10:56:47;;;;;;;3.85;1.08;;;;;;;22.39;54.97;100232.75;4995670;28;20037;-76
2021/07/06 10:59:24;;;;;;;1.90;1.17;;;;;;;22.38;54.72;100249.47;4993868;28;20037;-72
2021/07/06 11:01:49;;;;;;;5.28;1.30;;;;;;;22.38;54.52;100244.22;4993631;28;20113;-71
2021/07/06 11:04:46;;;;;;;3.40;1.40;;;;;;;22.44;54.46;100251.06;4994825;28;20057;-71
2021/07/06 11:07:16;;;;;;;2.83;1.38;;;;;;;22.46;54.54;100247.47;4994728;28;20035;-71
2021/07/06 11:09:41;;;;;;;4.00;1.50;;;;;;;22.46;54.47;100251.88;4993392;28;20423;-71
2021/07/06 11:12:35;;;;;;;3.83;1.42;;;;;;;22.43;54.53;100260.75;4993162;28;20049;-71
2021/07/06 11:15:12;;;;;;;2.67;1.52;;;;;;;22.44;54.58;100265.13;4993314;28;20425;-71
2021/07/06 11:17:48;;;;;;;2.72;1.33;;;;;;;22.45;54.60;100263.34;4993321;28;20026;-71
2021/07/06 11:20:29;;;;;;;2.67;1.20;;;;;;;22.43;54.61;100266.03;4994658;28;20037;-71
2021/07/06 11:22:56;;;;;;;2.60;1.48;;;;;;;22.45;54.58;100269.47;4993247;28;20026;-71
2021/07/06 11:25:32;;;;;;;3.10;1.40;;;;;;;22.45;54.65;100268.63;4993108;28;20072;-71
2021/07/06 11:27:57;;;;;;;3.53;1.38;;;;;;;22.46;54.58;100270.31;4994406;28;20022;-71
2021/07/06 11:30:26;;;;;;;3.00;1.48;;;;;;;22.41;54.55;100274.88;4994407;28;20037;-71
2021/07/06 11:33:12;;;;;;;1.80;1.13;;;;;;;22.40;54.58;100275.78;4994400;28;20110;-71
2021/07/06 11:35:41;;;;;;;4.60;2.38;;;;;;;22.41;54.27;100273.09;4994499;28;20089;-71
2021/07/06 11:38:10;;;;;;;4.18;1.50;;;;;;;22.42;53.83;100260.78;4994586;28;20030;-71
2021/07/06 11:40:38;;;;;;;3.85;1.25;;;;;;;22.37;54.35;100265.31;4994206;28;20033;-71